Time;durP1;ratioP1;P1;durP2;ratioP2;P2;SDS_P1;SDS_P2;PMS_P1;PMS_P2;Temp;Humidity;BMP_temperature;BMP_pressure;BME280_temperature;BME280_humidity;BME280_pressure;Samples;Min_cycle;Max_cycle;Signal;HPM_P1;HPM_P2
2022/11/15 00:01:09;;;;;;;5.25;4.85;;;7.90;99.90;;;;;;4970949;28;20205;-75
2022/11/15 00:03:36;;;;;;;5.57;5.07;;;7.90;99.90;;;;;;4972869;28;20244;-79
2022/11/15 00:06:05;;;;;;;5.60;5.20;;;7.90;99.90;;;;;;4974678;28;20202;-74
2022/11/15 00:08:32;;;;;;;5.65;5.25;;;7.90;99.90;;;;;;4974134;28;20221;-77
2022/11/15 00:11:02;;;;;;;5.82;5.43;;;7.90;99.90;;;;;;4975409;28;20256;-75
2022/11/15 00:13:32;;;;;;;5.03;4.68;;;7.90;99.90;;;;;;4974287;28;20221;-77
2022/11/15 00:16:00;;;;;;;5.05;4.65;;;7.90;99.90;;;;;;4971138;28;20202;-80
2022/11/15 00:18:28;;;;;;;5.15;4.75;;;8.00;99.90;;;;;;4974834;28;20706;-74
2022/11/15 00:20:56;;;;;;;5.65;5.18;;;8.00;99.90;;;;;;4971445;28;20205;-80
2022/11/15 00:23:24;;;;;;;5.25;4.85;;;8.00;99.90;;;;;;4977089;28;20221;-77
2022/11/15 00:25:57;;;;;;;5.10;4.70;;;8.00;99.90;;;;;;4974647;28;20197;-78
2022/11/15 00:28:25;;;;;;;4.82;4.43;;;8.00;99.90;;;;;;4973141;28;20222;-74
2022/11/15 00:30:53;;;;;;;5.72;5.32;;;8.00;99.90;;;;;;4970679;28;20451;-74
2022/11/15 00:33:21;;;;;;;4.88;4.47;;;7.90;99.90;;;;;;4974480;28;20217;-77
2022/11/15 00:35:48;;;;;;;5.72;5.32;;;7.90;99.90;;;;;;4974075;28;20206;-78
2022/11/15 00:38:16;;;;;;;5.45;4.95;;;7.90;99.90;;;;;;4973586;28;20217;-77
2022/11/15 00:40:43;;;;;;;4.85;4.45;;;7.80;99.90;;;;;;4974421;28;20198;-74
2022/11/15 00:43:10;;;;;;;4.88;4.57;;;7.80;99.90;;;;;;4977685;28;20217;-78
2022/11/15 00:45:37;;;;;;;4.85;4.45;;;7.80;99.90;;;;;;4975595;28;20690;-74
2022/11/15 00:48:08;;;;;;;5.35;4.95;;;7.80;99.90;;;;;;4973172;28;20221;-75
2022/11/15 00:50:35;;;;;;;5.38;4.97;;;7.90;99.90;;;;;;4972868;28;20237;-75
2022/11/15 00:53:03;;;;;;;5.47;5.07;;;7.90;99.90;;;;;;4971607;28;20249;-76
2022/11/15 00:55:30;;;;;;;5.18;4.78;;;7.90;99.90;;;;;;4972596;28;20205;-76
2022/11/15 00:57:58;;;;;;;4.85;4.55;;;7.90;99.90;;;;;;4975351;28;20221;-75
2022/11/15 01:00:25;;;;;;;4.13;3.83;;;7.90;99.90;;;;;;4969758;28;20217;-76
2022/11/15 01:02:53;;;;;;;5.07;4.68;;;7.90;99.90;;;;;;4976372;28;20229;-78
2022/11/15 01:05:22;;;;;;;5.50;5.10;;;7.90;99.90;;;;;;4973980;28;20571;-76
2022/11/15 01:07:53;;;;;;;4.85;4.55;;;7.80;99.90;;;;;;4977161;28;20225;-79
2022/11/15 01:10:20;;;;;;;5.20;4.80;;;7.80;99.90;;;;;;4974684;28;20232;-77
2022/11/15 01:12:48;;;;;;;5.03;4.70;;;7.80;99.90;;;;;;4974222;28;20216;-76
2022/11/15 01:15:17;;;;;;;5.13;4.82;;;7.80;99.90;;;;;;4973184;28;20599;-79
2022/11/15 01:17:44;;;;;;;5.82;5.40;;;7.90;99.90;;;;;;4969791;28;20718;-75
2022/11/15 01:20:12;;;;;;;5.35;4.95;;;7.90;99.90;;;;;;4977020;28;20228;-76
2022/11/15 01:22:41;;;;;;;5.30;4.90;;;7.80;99.90;;;;;;4969647;28;20225;-75
2022/11/15 01:25:09;;;;;;;5.78;5.38;;;7.70;99.90;;;;;;4977325;28;20618;-76
2022/11/15 01:27:36;;;;;;;4.65;4.35;;;7.60;99.90;;;;;;4977523;28;20599;-74
2022/11/15 01:30:05;;;;;;;5.60;5.20;;;7.70;99.90;;;;;;4975805;28;20594;-76
2022/11/15 01:32:33;;;;;;;5.47;4.97;;;7.60;99.90;;;;;;4967456;28;20288;-76
2022/11/15 01:35:00;;;;;;;5.43;5.03;;;7.60;99.90;;;;;;4973816;28;20694;-75
2022/11/15 01:37:27;;;;;;;4.72;4.40;;;7.60;99.90;;;;;;4969104;28;20217;-77
2022/11/15 01:39:57;;;;;;;5.38;4.97;;;7.60;99.90;;;;;;4972792;28;20232;-77
2022/11/15 01:42:24;;;;;;;4.35;4.05;;;7.60;99.90;;;;;;4974140;28;20228;-74
2022/11/15 01:44:52;;;;;;;4.50;4.20;;;7.70;99.90;;;;;;5009756;23;20311;-68
2022/11/15 01:47:24;;;;;;;4.63;4.32;;;7.70;99.90;;;;;;5009570;28;20303;-69
2022/11/15 01:49:56;;;;;;;5.03;4.63;;;7.70;99.90;;;;;;5003654;28;20245;-69
2022/11/15 01:52:27;;;;;;;4.50;4.28;;;7.70;99.90;;;;;;4995231;28;20219;-69
2022/11/15 01:55:00;;;;;;;4.57;4.28;;;7.60;99.90;;;;;;4988351;28;20208;-69
2022/11/15 01:57:28;;;;;;;5.22;4.80;;;7.50;99.90;;;;;;4993638;28;20220;-69
2022/11/15 01:59:55;;;;;;;4.88;4.57;;;7.50;99.90;;;;;;4996986;28;20212;-71
2022/11/15 02:02:22;;;;;;;4.85;4.55;;;7.50;99.90;;;;;;4993667;28;20224;-69
2022/11/15 02:04:50;;;;;;;4.90;4.60;;;7.60;99.90;;;;;;5000797;28;20689;-69
2022/11/15 02:07:19;;;;;;;4.60;4.30;;;7.60;99.90;;;;;;5000085;28;20238;-69
2022/11/15 02:09:47;;;;;;;4.57;4.28;;;7.70;99.90;;;;;;4991463;28;20221;-69
2022/11/15 02:12:19;;;;;;;4.80;4.40;;;7.70;99.90;;;;;;4996303;28;20225;-69
2022/11/15 02:14:49;;;;;;;4.40;4.10;;;7.70;99.90;;;;;;4990698;28;20208;-69
2022/11/15 02:17:34;;;;;;;4.50;4.20;;;7.80;99.90;;;;;;4995905;28;20232;-72
2022/11/15 02:20:30;;;;;;;4.90;4.50;;;7.80;99.90;;;;;;4995179;28;20235;-70
2022/11/15 02:23:32;;;;;;;5.13;4.72;;;7.80;99.90;;;;;;4999213;28;20286;-73
2022/11/15 02:26:18;;;;;;;5.70;5.30;;;7.80;99.90;;;;;;4993904;28;20192;-72
2022/11/15 02:28:59;;;;;;;5.78;5.38;;;7.60;99.90;;;;;;4986373;28;20220;-70
2022/11/15 02:31:34;;;;;;;4.45;4.15;;;7.50;99.90;;;;;;4993279;28;20224;-69
2022/11/15 02:34:09;;;;;;;5.15;4.75;;;7.50;99.90;;;;;;4997843;28;20255;-69
2022/11/15 02:36:44;;;;;;;4.78;4.38;;;7.50;99.90;;;;;;4994491;28;20246;-69
2022/11/15 02:39:19;;;;;;;4.75;4.40;;;7.40;99.90;;;;;;4986983;28;20205;-69
2022/11/15 02:41:52;;;;;;;4.65;4.35;;;7.50;99.90;;;;;;4991825;28;20205;-69
2022/11/15 02:44:24;;;;;;;4.18;3.92;;;7.50;99.90;;;;;;4993939;28;20208;-71
2022/11/15 02:47:16;;;;;;;4.32;4.03;;;7.60;99.90;;;;;;4994601;28;20239;-69
2022/11/15 02:49:47;;;;;;;4.22;3.92;;;7.60;99.90;;;;;;4996002;28;20683;-69
2022/11/15 02:52:16;;;;;;;4.22;3.92;;;7.60;99.90;;;;;;4990185;28;20224;-69
2022/11/15 02:54:44;;;;;;;4.72;4.43;;;7.60;99.90;;;;;;4998992;28;20196;-69
2022/11/15 02:57:16;;;;;;;4.47;4.18;;;7.70;99.90;;;;;;4993377;28;20228;-71
2022/11/15 03:00:06;;;;;;;4.43;4.03;;;7.70;99.90;;;;;;4987040;28;20212;-69
2022/11/15 03:03:00;;;;;;;4.75;4.45;;;7.70;99.90;;;;;;4995844;28;20220;-70
2022/11/15 03:05:36;;;;;;;4.50;4.10;;;7.70;99.90;;;;;;4996088;28;20197;-69
2022/11/15 03:08:09;;;;;;;4.55;4.25;;;7.70;99.90;;;;;;4995424;28;20746;-69
2022/11/15 03:10:47;;;;;;;4.60;4.30;;;7.70;99.90;;;;;;4995546;28;20305;-69
2022/11/15 03:13:26;;;;;;;4.25;3.95;;;7.70;99.90;;;;;;4989512;28;20220;-69
2022/11/15 03:15:59;;;;;;;3.75;3.55;;;7.70;99.90;;;;;;4995854;28;20560;-70
2022/11/15 03:18:33;;;;;;;4.28;3.97;;;7.70;99.90;;;;;;4991879;28;20221;-70
2022/11/15 03:21:04;;;;;;;4.35;4.05;;;7.70;99.90;;;;;;4993218;28;20259;-71
2022/11/15 03:23:32;;;;;;;4.57;4.28;;;7.60;99.90;;;;;;4993620;28;20733;-70
2022/11/15 03:26:00;;;;;;;4.40;4.10;;;7.60;99.90;;;;;;4995251;28;20233;-70
2022/11/15 03:28:35;;;;;;;4.20;3.90;;;7.60;99.90;;;;;;5000347;28;20299;-69
2022/11/15 03:31:46;;;;;;;4.13;3.83;;;7.60;99.90;;;;;;4992581;28;20223;-69
2022/11/15 03:33:55;;;;;;;4.38;4.07;;;7.60;99.90;;;;;;4996529;28;20299;-69
2022/11/15 03:36:24;;;;;;;4.20;3.90;;;7.50;99.90;;;;;;4998299;28;20210;-70
2022/11/15 03:38:55;;;;;;;4.07;3.78;;;7.50;99.90;;;;;;4990996;28;20223;-70
2022/11/15 03:41:27;;;;;;;4.53;4.22;;;7.50;99.90;;;;;;5001146;28;20200;-69
2022/11/15 03:44:01;;;;;;;4.13;3.83;;;7.50;99.90;;;;;;4993267;28;20296;-69
2022/11/15 03:46:33;;;;;;;4.43;4.13;;;7.50;99.90;;;;;;4996528;28;20197;-69
2022/11/15 03:49:09;;;;;;;4.28;3.97;;;7.50;99.90;;;;;;5001008;28;20221;-70
2022/11/15 03:51:36;;;;;;;3.88;3.65;;;7.50;99.90;;;;;;4995035;28;20216;-69
2022/11/15 03:54:05;;;;;;;4.15;3.90;;;7.50;99.90;;;;;;5000764;28;20196;-69
2022/11/15 03:56:32;;;;;;;4.05;3.85;;;7.40;99.90;;;;;;4997905;28;20210;-69
2022/11/15 03:58:59;;;;;;;4.10;3.80;;;7.40;99.90;;;;;;4998224;28;20209;-69
2022/11/15 04:01:26;;;;;;;4.47;4.18;;;7.40;99.90;;;;;;5000362;28;20189;-69
2022/11/15 04:03:53;;;;;;;4.30;4.00;;;7.40;99.90;;;;;;4992554;28;20228;-69
2022/11/15 04:06:21;;;;;;;3.90;3.70;;;7.40;99.90;;;;;;4996200;28;20563;-69
2022/11/15 04:08:49;;;;;;;4.20;3.95;;;7.40;99.90;;;;;;4999247;28;20216;-68
2022/11/15 04:11:16;;;;;;;4.47;4.18;;;7.50;99.90;;;;;;4996526;28;20284;-69
2022/11/15 04:13:43;;;;;;;4.38;4.07;;;7.50;99.90;;;;;;4998304;28;20220;-68
2022/11/15 04:16:10;;;;;;;4.47;4.18;;;7.40;99.90;;;;;;4994402;28;20200;-69
2022/11/15 04:18:37;;;;;;;4.82;4.43;;;7.40;99.90;;;;;;4992847;28;20221;-71
2022/11/15 04:26:35;;;;;;;4.63;4.03;;;7.40;99.90;;;;;;4993212;28;20369;-69
2022/11/15 04:31:46;;;;;;;4.70;4.40;;;7.30;99.90;;;;;;4993469;28;20314;-69
2022/11/15 04:34:13;;;;;;;4.20;4.00;;;7.30;99.90;;;;;;4995298;28;20208;-70
2022/11/15 04:39:26;;;;;;;3.95;3.65;;;7.10;99.90;;;;;;4998229;28;20370;-68
2022/11/15 04:41:53;;;;;;;4.65;4.35;;;7.10;99.90;;;;;;4996883;28;20231;-69
2022/11/15 04:44:20;;;;;;;4.50;4.20;;;7.10;99.90;;;;;;4998032;28;20217;-68
2022/11/15 04:46:47;;;;;;;4.72;4.38;;;7.10;99.90;;;;;;4992782;28;20583;-68
2022/11/15 04:49:14;;;;;;;5.15;4.68;;;7.00;99.90;;;;;;5001603;28;21160;-68
2022/11/15 04:51:41;;;;;;;5.28;4.93;;;7.00;99.90;;;;;;4997324;28;20216;-68
2022/11/15 04:54:08;;;;;;;5.35;4.95;;;7.00;99.90;;;;;;4995459;28;20197;-70
2022/11/15 04:56:37;;;;;;;4.72;4.43;;;6.90;99.90;;;;;;4992885;28;20205;-69
2022/11/15 04:59:04;;;;;;;4.93;4.55;;;6.90;99.90;;;;;;4997523;28;20199;-70
2022/11/15 05:01:31;;;;;;;4.53;4.22;;;6.90;99.90;;;;;;4990596;28;20180;-69
2022/11/15 05:06:42;;;;;;;5.05;4.65;;;7.00;99.90;;;;;;4992619;28;20270;-69
2022/11/15 05:09:10;;;;;;;4.70;4.40;;;6.90;99.90;;;;;;4990700;28;20259;-70
2022/11/15 05:11:38;;;;;;;4.60;4.30;;;6.90;99.90;;;;;;4990296;28;20571;-69
2022/11/15 05:14:05;;;;;;;4.18;3.88;;;6.90;99.90;;;;;;4997403;28;20192;-69
2022/11/15 05:16:32;;;;;;;4.13;3.72;;;6.90;99.90;;;;;;4996579;28;20205;-68
2022/11/15 05:18:59;;;;;;;5.22;4.72;;;6.90;99.90;;;;;;4997238;28;20205;-71
2022/11/15 05:21:26;;;;;;;5.03;4.63;;;6.90;99.90;;;;;;5002616;28;20185;-69
2022/11/15 05:23:53;;;;;;;4.43;4.13;;;6.90;99.90;;;;;;4990736;28;20220;-69
2022/11/15 05:26:20;;;;;;;4.40;4.10;;;6.90;99.90;;;;;;4998297;28;20247;-69
2022/11/15 05:28:54;;;;;;;5.10;4.70;;;6.90;99.90;;;;;;4990063;28;20220;-68
2022/11/15 05:31:21;;;;;;;4.40;4.03;;;7.00;99.90;;;;;;4996730;28;20304;-68
2022/11/15 05:33:51;;;;;;;6.90;6.18;;;7.00;99.90;;;;;;4998747;28;20212;-69
2022/11/15 05:36:25;;;;;;;12.45;9.88;;;7.00;99.90;;;;;;4997678;28;20263;-69
2022/11/15 05:38:52;;;;;;;13.73;9.73;;;7.00;99.90;;;;;;4996745;28;20228;-68
2022/11/15 05:41:23;;;;;;;11.30;8.55;;;7.10;99.90;;;;;;4998591;28;20216;-67
2022/11/15 05:43:53;;;;;;;8.43;7.45;;;7.10;99.90;;;;;;4999082;28;20220;-69
2022/11/15 05:46:20;;;;;;;8.38;7.47;;;7.00;99.90;;;;;;4998078;28;20193;-69
2022/11/15 05:48:52;;;;;;;6.80;6.03;;;7.00;99.90;;;;;;4994829;28;20579;-67
2022/11/15 05:51:22;;;;;;;7.93;7.13;;;7.00;99.90;;;;;;4997044;28;20227;-68
2022/11/15 05:53:50;;;;;;;5.90;5.40;;;7.00;99.90;;;;;;4992693;28;20212;-68
2022/11/15 05:56:17;;;;;;;5.85;5.32;;;7.00;99.90;;;;;;4995652;28;20212;-68
2022/11/15 05:58:44;;;;;;;5.60;5.10;;;6.90;99.90;;;;;;4992676;28;20216;-68
2022/11/15 06:01:13;;;;;;;5.43;4.93;;;6.90;99.90;;;;;;4997010;28;20239;-69
2022/11/15 06:03:40;;;;;;;5.43;5.03;;;7.00;99.90;;;;;;4993432;28;20728;-70
2022/11/15 06:06:07;;;;;;;6.45;5.88;;;7.00;99.90;;;;;;4996056;28;20200;-69
2022/11/15 06:08:34;;;;;;;5.68;5.22;;;7.10;99.90;;;;;;5002469;28;20220;-68
2022/11/15 06:11:06;;;;;;;5.75;5.35;;;7.10;99.90;;;;;;5014472;23;20228;-73
2022/11/15 06:13:33;;;;;;;4.75;4.45;;;7.00;99.90;;;;;;5019209;28;20285;-73
2022/11/15 06:16:01;;;;;;;4.97;4.60;;;7.00;99.90;;;;;;4985301;28;20224;-72
2022/11/15 06:18:32;;;;;;;5.47;5.07;;;7.00;99.90;;;;;;4988665;28;20963;-72
2022/11/15 06:21:00;;;;;;;5.72;5.22;;;6.90;99.90;;;;;;4990160;28;20591;-72
2022/11/15 06:23:28;;;;;;;6.25;5.72;;;6.90;99.90;;;;;;4991263;28;20303;-72
2022/11/15 06:25:58;;;;;;;6.28;5.68;;;6.90;99.90;;;;;;4991213;28;20225;-73
2022/11/15 06:28:25;;;;;;;7.53;5.43;;;6.90;99.90;;;;;;4985980;28;20236;-72
2022/11/15 06:30:53;;;;;;;5.47;5.07;;;6.90;99.90;;;;;;4989050;28;20232;-72
2022/11/15 06:33:20;;;;;;;5.75;5.25;;;6.90;99.90;;;;;;4989497;28;20225;-73
2022/11/15 06:35:49;;;;;;;4.65;4.18;;;6.90;99.90;;;;;;4993139;28;20224;-72
2022/11/15 06:38:17;;;;;;;4.57;4.18;;;6.90;99.90;;;;;;4990769;28;20252;-72
2022/11/15 06:40:44;;;;;;;4.68;4.30;;;6.90;99.90;;;;;;4985641;28;20197;-72
2022/11/15 06:43:11;;;;;;;4.68;4.28;;;7.10;99.90;;;;;;4991160;28;20216;-72
2022/11/15 06:45:38;;;;;;;4.82;4.43;;;7.20;99.90;;;;;;4988644;28;20217;-72
2022/11/15 06:48:07;;;;;;;5.20;4.80;;;7.30;99.90;;;;;;4991398;28;20634;-72
2022/11/15 06:50:34;;;;;;;4.10;3.80;;;7.40;99.90;;;;;;4990202;28;20201;-72
2022/11/15 06:53:06;;;;;;;4.10;3.80;;;7.40;99.90;;;;;;4989952;28;20224;-72
2022/11/15 06:55:33;;;;;;;4.90;4.50;;;7.50;99.90;;;;;;4989106;28;20228;-72
2022/11/15 06:58:00;;;;;;;5.10;4.70;;;7.50;99.90;;;;;;4990418;28;20224;-72
2022/11/15 07:00:27;;;;;;;5.45;4.95;;;7.50;99.90;;;;;;4987705;28;20213;-72
2022/11/15 07:02:55;;;;;;;5.53;5.13;;;7.50;99.90;;;;;;4988263;28;20702;-72
2022/11/15 07:05:22;;;;;;;6.45;5.95;;;7.50;99.90;;;;;;4995876;28;20219;-72
2022/11/15 07:07:53;;;;;;;6.95;5.82;;;7.50;99.90;;;;;;4987611;28;20231;-72
2022/11/15 07:10:24;;;;;;;5.72;5.22;;;7.50;99.90;;;;;;4990313;28;20259;-73
2022/11/15 07:12:52;;;;;;;5.57;5.07;;;7.60;99.90;;;;;;4988918;28;20299;-72
2022/11/15 07:15:21;;;;;;;5.57;5.07;;;7.60;99.90;;;;;;4983714;28;20220;-72
2022/11/15 07:17:49;;;;;;;5.90;5.40;;;7.60;99.90;;;;;;4989061;28;20227;-72
2022/11/15 07:20:17;;;;;;;5.28;4.88;;;7.60;99.90;;;;;;4978161;28;20590;-74
2022/11/15 07:22:45;;;;;;;4.80;4.40;;;7.70;99.90;;;;;;4987320;28;20217;-74
2022/11/15 07:25:13;;;;;;;4.97;4.57;;;7.80;99.90;;;;;;4994517;28;20266;-74
2022/11/15 07:27:41;;;;;;;5.22;4.72;;;7.90;99.90;;;;;;4993493;28;20227;-74
2022/11/15 07:30:10;;;;;;;5.40;5.00;;;7.90;99.90;;;;;;4991575;28;20203;-74
2022/11/15 07:32:37;;;;;;;6.43;5.65;;;7.90;99.90;;;;;;4996215;28;20221;-74
2022/11/15 07:35:04;;;;;;;6.65;6.05;;;7.90;99.90;;;;;;4995911;28;20220;-72
2022/11/15 07:37:32;;;;;;;5.97;5.45;;;7.90;99.90;;;;;;4992842;28;20661;-72
2022/11/15 07:39:59;;;;;;;5.90;5.28;;;7.90;99.90;;;;;;4994794;28;20621;-71
2022/11/15 07:45:12;;;;;;;6.45;5.95;;;8.10;99.90;;;;;;5011341;22;20234;-75
2022/11/15 07:47:39;;;;;;;6.60;6.00;;;8.60;99.90;;;;;;5024533;28;20220;-76
2022/11/15 07:50:07;;;;;;;7.43;6.72;;;9.20;99.90;;;;;;5024774;28;20678;-75
2022/11/15 07:52:34;;;;;;;7.43;6.80;;;9.90;99.90;;;;;;5025388;28;20215;-75
2022/11/15 07:55:02;;;;;;;7.00;6.30;;;10.50;99.90;;;;;;5025967;28;20212;-76
2022/11/15 07:57:30;;;;;;;7.53;5.90;;;11.10;99.90;;;;;;5024521;28;20215;-76
2022/11/15 07:59:57;;;;;;;10.55;5.57;;;11.90;99.90;;;;;;5020556;28;20521;-75
2022/11/15 08:02:26;;;;;;;5.90;5.25;;;12.80;99.90;;;;;;5021618;28;20282;-75
2022/11/15 08:04:53;;;;;;;6.90;5.55;;;13.40;99.90;;;;;;5021628;28;20207;-76
2022/11/15 08:07:20;;;;;;;6.72;5.10;;;14.00;99.90;;;;;;5021676;28;20227;-75
2022/11/15 08:09:48;;;;;;;4.70;4.25;;;14.50;99.90;;;;;;5019223;28;20211;-76
2022/11/15 08:12:15;;;;;;;9.63;4.85;;;14.80;99.90;;;;;;5021330;28;20297;-76
2022/11/15 08:14:42;;;;;;;3.88;3.55;;;15.00;99.90;;;;;;5022685;28;20664;-76
2022/11/15 08:17:10;;;;;;;5.03;3.90;;;15.40;99.90;;;;;;5016083;28;20641;-76
2022/11/15 08:19:38;;;;;;;4.18;3.88;;;15.90;99.90;;;;;;5013136;28;20195;-76
2022/11/15 08:22:06;;;;;;;4.50;4.10;;;16.30;99.90;;;;;;5016936;28;20219;-75
2022/11/15 08:24:33;;;;;;;4.28;3.92;;;16.50;99.90;;;;;;5017881;28;20210;-75
2022/11/15 08:27:01;;;;;;;4.28;3.88;;;16.50;99.90;;;;;;5020035;28;20406;-76
2022/11/15 08:29:28;;;;;;;3.58;3.28;;;16.50;99.90;;;;;;5016379;28;20211;-75
2022/11/15 08:31:56;;;;;;;4.05;3.55;;;15.90;99.90;;;;;;5016738;28;20906;-73
2022/11/15 08:34:23;;;;;;;5.63;3.75;;;15.30;99.90;;;;;;5015677;28;20200;-76
2022/11/15 08:36:52;;;;;;;3.40;3.20;;;14.80;99.90;;;;;;5018090;28;20254;-76
2022/11/15 08:39:19;;;;;;;3.10;2.90;;;14.40;99.90;;;;;;5020263;28;20252;-75
2022/11/15 08:41:47;;;;;;;3.35;3.15;;;14.30;99.90;;;;;;5023527;28;20215;-76
2022/11/15 08:44:14;;;;;;;3.20;3.00;;;14.20;99.90;;;;;;5019738;28;20187;-76
2022/11/15 08:46:42;;;;;;;3.55;3.25;;;14.10;99.90;;;;;;5016756;28;20274;-76
2022/11/15 08:49:09;;;;;;;4.35;3.08;;;14.00;99.90;;;;;;5022039;28;20204;-75
2022/11/15 08:51:36;;;;;;;3.22;3.00;;;13.80;99.90;;;;;;5022378;28;20225;-76
2022/11/15 08:54:05;;;;;;;3.65;3.35;;;13.60;99.90;;;;;;5023499;28;21137;-77
2022/11/15 08:56:32;;;;;;;3.33;3.00;;;13.40;99.90;;;;;;5017027;28;20203;-76
2022/11/15 08:58:59;;;;;;;3.70;3.40;;;13.30;99.90;;;;;;5021125;28;20552;-74
2022/11/15 09:01:26;;;;;;;3.30;3.10;;;13.50;99.90;;;;;;5021931;28;20234;-76
2022/11/15 09:03:54;;;;;;;3.55;3.25;;;14.20;99.90;;;;;;5022658;28;20221;-77
2022/11/15 09:06:21;;;;;;;3.45;3.25;;;14.20;99.90;;;;;;5029777;28;20467;-78
2022/11/15 09:08:49;;;;;;;3.80;3.50;;;14.50;99.90;;;;;;5029868;28;20247;-77
2022/11/15 09:11:20;;;;;;;4.25;3.85;;;14.50;99.90;;;;;;5030439;28;20230;-78
2022/11/15 09:13:47;;;;;;;4.93;3.85;;;15.50;99.90;;;;;;5028080;28;20219;-78
2022/11/15 09:16:15;;;;;;;5.32;3.67;;;15.00;99.90;;;;;;5022354;28;20226;-77
2022/11/15 09:18:42;;;;;;;3.42;3.13;;;14.70;99.90;;;;;;5021762;28;20226;-78
2022/11/15 09:21:10;;;;;;;3.33;3.13;;;16.30;99.90;;;;;;5023665;28;20727;-77
2022/11/15 09:23:38;;;;;;;3.58;3.28;;;18.40;99.90;;;;;;5024224;28;20219;-78
2022/11/15 09:26:06;;;;;;;4.03;3.42;;;19.20;99.90;;;;;;5029309;28;20349;-77
2022/11/15 09:28:36;;;;;;;3.70;3.40;;;19.10;99.90;;;;;;5026807;28;20219;-78
2022/11/15 09:31:05;;;;;;;3.55;3.25;;;18.60;99.90;;;;;;5031184;28;20216;-79
2022/11/15 09:33:32;;;;;;;3.67;3.38;;;18.00;99.90;;;;;;5025481;28;20217;-78
2022/11/15 09:36:02;;;;;;;3.30;3.00;;;17.60;99.90;;;;;;5030304;28;20219;-77
2022/11/15 09:38:29;;;;;;;3.58;3.28;;;17.00;99.90;;;;;;5032490;28;20215;-79
2022/11/15 09:41:37;;;;;;;3.35;3.05;;;16.90;99.90;;;;;;5029547;28;20216;-78
2022/11/15 09:44:21;;;;;;;3.25;3.05;;;16.90;99.90;;;;;;4942679;29;20222;-79
2022/11/15 09:46:56;;;;;;;3.53;3.22;;;16.80;99.90;;;;;;5018727;28;20255;-77
2022/11/15 09:49:24;;;;;;;3.30;3.05;;;16.60;99.90;;;;;;5033429;28;20192;-78
2022/11/15 09:51:54;;;;;;;3.20;3.00;;;16.50;99.90;;;;;;5032460;28;20238;-79
2022/11/15 09:54:28;;;;;;;3.05;2.80;;;16.30;99.90;;;;;;5028579;28;20212;-78
2022/11/15 09:56:58;;;;;;;4.38;3.97;;;16.50;99.90;;;;;;5028727;28;20319;-78
2022/11/15 09:59:44;;;;;;;3.70;3.40;;;16.40;99.90;;;;;;5030794;28;20214;-77
2022/11/15 10:02:24;;;;;;;3.78;3.42;;;16.30;99.90;;;;;;5028889;28;20238;-78
2022/11/15 10:04:53;;;;;;;4.00;3.22;;;16.50;99.90;;;;;;5035270;28;20219;-77
2022/11/15 10:07:28;;;;;;;3.15;2.90;;;16.70;99.90;;;;;;5037793;28;20285;-77
2022/11/15 10:09:59;;;;;;;3.58;3.28;;;16.70;99.90;;;;;;5033203;28;20262;-78
2022/11/15 10:12:28;;;;;;;3.47;3.28;;;16.60;99.90;;;;;;5035080;28;20222;-77
2022/11/15 10:15:02;;;;;;;3.08;2.85;;;16.20;99.90;;;;;;5034511;28;20196;-79
2022/11/15 10:17:57;;;;;;;3.63;3.38;;;16.30;99.90;;;;;;5033989;28;20229;-78
2022/11/15 10:20:27;;;;;;;3.47;3.20;;;16.40;99.90;;;;;;5022304;28;20267;-77
2022/11/15 10:22:57;;;;;;;3.05;2.67;;;16.80;99.90;;;;;;5037673;28;20211;-78
2022/11/15 10:25:26;;;;;;;3.25;3.00;;;17.00;99.90;;;;;;5031560;28;20382;-76
2022/11/15 10:27:59;;;;;;;3.67;3.38;;;16.90;99.90;;;;;;5029523;28;20231;-77
2022/11/15 10:30:35;;;;;;;3.22;3.03;;;16.20;99.90;;;;;;5031517;28;20219;-78
2022/11/15 10:33:26;;;;;;;3.45;3.15;;;15.20;99.90;;;;;;5031083;28;20231;-77
2022/11/15 10:36:22;;;;;;;3.75;3.45;;;15.00;99.90;;;;;;5030813;28;20337;-78
2022/11/15 10:38:57;;;;;;;9.57;4.05;;;15.00;99.90;;;;;;5025021;28;20745;-77
2022/11/15 10:41:34;;;;;;;3.60;3.30;;;15.10;99.90;;;;;;5032759;28;20222;-76
2022/11/15 10:44:27;;;;;;;3.40;3.10;;;14.60;99.90;;;;;;5029867;28;20239;-77
2022/11/15 10:47:26;;;;;;;4.07;3.63;;;14.00;99.90;;;;;;5013401;28;20234;-78
2022/11/15 10:49:57;;;;;;;3.88;3.58;;;13.50;99.90;;;;;;5027012;28;20215;-78
2022/11/15 10:52:25;;;;;;;4.07;3.78;;;13.40;99.90;;;;;;5027703;28;20244;-77
2022/11/15 10:54:56;;;;;;;4.15;3.85;;;13.20;99.90;;;;;;5028213;28;20567;-78
2022/11/15 10:57:26;;;;;;;3.78;3.42;;;13.00;99.90;;;;;;5029395;28;20435;-77
2022/11/15 10:59:55;;;;;;;5.40;3.40;;;12.70;99.90;;;;;;5025489;28;20199;-76
2022/11/15 11:02:30;;;;;;;4.45;3.50;;;12.50;99.90;;;;;;5033314;28;20258;-80
2022/11/15 11:04:58;;;;;;;3.63;3.33;;;12.50;99.90;;;;;;5029491;28;20191;-78
2022/11/15 11:07:28;;;;;;;3.25;2.88;;;12.30;99.90;;;;;;5029853;28;20226;-78
2022/11/15 11:10:00;;;;;;;4.03;3.72;;;12.20;99.90;;;;;;5026250;28;20277;-78
2022/11/15 11:12:31;;;;;;;4.00;3.70;;;12.20;99.90;;;;;;5026346;28;20216;-78
2022/11/15 11:15:00;;;;;;;3.60;3.30;;;12.20;99.90;;;;;;5030341;28;20598;-77
2022/11/15 11:17:43;;;;;;;3.60;3.30;;;12.30;99.90;;;;;;5024173;28;20215;-78
2022/11/15 11:20:20;;;;;;;4.85;3.70;;;12.30;99.90;;;;;;5025878;28;20283;-79
2022/11/15 11:23:00;;;;;;;3.60;3.28;;;12.20;99.90;;;;;;5027251;28;20211;-76
2022/11/15 11:25:35;;;;;;;3.63;3.33;;;12.10;99.90;;;;;;5030710;28;20588;-77
2022/11/15 11:28:31;;;;;;;4.22;3.67;;;12.20;99.90;;;;;;5031457;28;20243;-77
2022/11/15 11:31:13;;;;;;;4.95;3.60;;;12.20;99.90;;;;;;5026244;28;20232;-79
2022/11/15 11:33:48;;;;;;;4.03;3.67;;;12.30;99.90;;;;;;5030026;28;20219;-79
2022/11/15 11:36:25;;;;;;;3.80;3.50;;;12.20;99.90;;;;;;5023920;28;20192;-78
2022/11/15 11:39:01;;;;;;;4.63;4.22;;;12.20;99.90;;;;;;5025496;28;20224;-78
2022/11/15 11:41:43;;;;;;;4.53;4.15;;;12.10;99.90;;;;;;5029231;28;20401;-79
2022/11/15 11:44:24;;;;;;;4.28;3.88;;;12.10;99.90;;;;;;5024988;28;20212;-78
2022/11/15 11:46:57;;;;;;;4.03;3.72;;;12.20;99.90;;;;;;5025932;28;20230;-78
2022/11/15 11:49:35;;;;;;;4.35;4.05;;;12.10;99.90;;;;;;5031488;28;20204;-79
2022/11/15 11:52:09;;;;;;;3.65;3.35;;;12.20;99.90;;;;;;5027811;28;20307;-78
2022/11/15 11:54:46;;;;;;;4.20;3.90;;;12.20;99.90;;;;;;5030293;28;20210;-78
2022/11/15 11:57:21;;;;;;;4.03;3.72;;;12.30;99.90;;;;;;5026888;28;20220;-78
2022/11/15 11:59:53;;;;;;;3.67;3.45;;;12.30;99.90;;;;;;5026391;28;20211;-78
2022/11/15 12:02:29;;;;;;;4.57;4.18;;;12.30;99.90;;;;;;5027985;28;20302;-80
2022/11/15 12:05:09;;;;;;;4.15;3.85;;;12.30;99.90;;;;;;5033874;28;20280;-78
2022/11/15 12:07:39;;;;;;;3.67;3.38;;;12.20;99.90;;;;;;5028585;28;20429;-77
2022/11/15 12:10:16;;;;;;;3.75;3.45;;;12.00;99.90;;;;;;5024804;28;20215;-77
2022/11/15 12:12:51;;;;;;;4.85;4.45;;;11.80;99.90;;;;;;5040119;22;20310;-70
2022/11/15 12:15:22;;;;;;;4.95;3.63;;;11.70;99.90;;;;;;5020274;28;20204;-70
2022/11/15 12:17:50;;;;;;;4.13;3.72;;;11.50;99.90;;;;;;5021828;28;20314;-71
2022/11/15 12:20:22;;;;;;;4.40;3.80;;;11.50;99.90;;;;;;5020834;28;20298;-70
2022/11/15 12:22:56;;;;;;;5.00;4.07;;;11.60;99.90;;;;;;5014555;28;20481;-70
2022/11/15 12:25:30;;;;;;;3.83;3.53;;;11.60;99.90;;;;;;5012699;28;20233;-70
2022/11/15 12:28:02;;;;;;;4.65;3.45;;;11.60;99.90;;;;;;5014420;28;20224;-70
2022/11/15 12:30:52;;;;;;;4.07;3.67;;;11.60;99.90;;;;;;5010325;28;20210;-70
2022/11/15 12:33:32;;;;;;;3.40;3.15;;;11.40;99.90;;;;;;5005825;28;20682;-70
2022/11/15 12:36:02;;;;;;;4.07;3.78;;;11.30;99.90;;;;;;5005206;28;20200;-71
2022/11/15 12:38:54;;;;;;;3.47;3.28;;;11.20;99.90;;;;;;5000554;28;20598;-70
2022/11/15 12:41:23;;;;;;;4.55;4.18;;;11.20;99.90;;;;;;5010817;28;20311;-70
2022/11/15 12:43:50;;;;;;;4.95;4.55;;;11.10;99.90;;;;;;5003038;28;20736;-70
2022/11/15 12:46:25;;;;;;;4.82;4.43;;;11.10;99.90;;;;;;5012319;28;20208;-70
2022/11/15 12:48:58;;;;;;;4.00;3.70;;;11.10;99.90;;;;;;5011067;28;20222;-70
2022/11/15 12:52:06;;;;;;;3.50;3.20;;;11.10;99.90;;;;;;5010090;28;20351;-70
2022/11/15 12:55:31;;;;;;;3.88;3.58;;;11.10;99.90;;;;;;4974115;28;20240;-70
2022/11/15 12:58:27;;;;;;;4.45;4.05;;;11.10;99.90;;;;;;5005790;28;20220;-71
2022/11/15 13:00:55;;;;;;;4.78;4.40;;;11.00;99.90;;;;;;5011431;28;20210;-71
2022/11/15 13:03:27;;;;;;;4.35;4.05;;;10.90;99.90;;;;;;5003518;28;20212;-70
2022/11/15 13:06:03;;;;;;;5.85;5.32;;;10.80;99.90;;;;;;5006543;28;20196;-70
2022/11/15 13:08:50;;;;;;;17.17;11.05;;;10.70;99.90;;;;;;5003133;28;20220;-70
2022/11/15 13:11:52;;;;;;;9.50;7.07;;;10.60;99.90;;;;;;5004491;28;20223;-72
2022/11/15 13:14:43;;;;;;;8.55;7.20;;;10.50;99.90;;;;;;5009029;28;20231;-71
2022/11/15 13:17:34;;;;;;;6.47;5.55;;;10.50;99.90;;;;;;5004435;28;20311;-71
2022/11/15 13:20:17;;;;;;;6.38;5.78;;;10.40;99.90;;;;;;5013848;28;20658;-72
2022/11/15 13:22:54;;;;;;;5.50;5.00;;;10.30;99.90;;;;;;5002809;28;20235;-72
2022/11/15 13:25:42;;;;;;;5.10;4.68;;;10.30;99.90;;;;;;5002815;28;20583;-71
2022/11/15 13:28:19;;;;;;;4.68;4.28;;;10.30;99.90;;;;;;5002205;28;20234;-72
2022/11/15 13:30:53;;;;;;;4.75;4.35;;;10.30;99.90;;;;;;4996659;28;20258;-73
2022/11/15 13:33:22;;;;;;;4.00;3.70;;;10.20;99.90;;;;;;4997654;28;20808;-71